Polk Army Air Field
KPOE : now visible

Airfield :











YOU CAN JOIN US ON...

 
LOGIN :

Register | Disclaimer

   EN    FR    IT 

 









Legend :    VFR   Marginal VFR   IFR   Intensive IFR   Very Intensive IFR
Visi :
Ceiling :
>= 8 km
>= 3000ft
5 to 8 km
1000 to 3000 ft
1500m to 5 km
500 to 1000 ft
800 to 1500m
200 to 500 ft
< 800m
< 200 ft
Symbols :   Thunderstorms  Fog  Heavy snow  Heavy precipitations  Wind > 20 kt







- Airport Elevation : 330 ft


KPOE - Polk Army Air Field

CURRENT METAR :
  • 211058Z AUTO 00000KT 4SM BR BKN002 OVC200 24/24 A2998 RMK AO2 SLP150 T02410236

EXPIRED METARs :
  • 211043Z AUTO 00000KT 5SM BR BKN003 BKN170 OVC200 24/24 A2998 RMK AO2 CIG 003V170 BKN003 V SCT SLP150
  • 211013Z AUTO 00000KT 8SM FEW003 OVC200 24/24 A2998 RMK AO2 SLP150
  • 210958Z AUTO 00000KT 6SM BR BKN002 OVC200 24/24 A2997 RMK AO2 SLP147 T02410236
  • 210943Z AUTO 00000KT 2 1/2SM BR OVC002 24/24 A2997 RMK AO2 VIS 1 3/4V2 1/2 SLP147
  • 210913Z AUTO 14003KT 1 1/2SM BR OVC002 24/24 A2998 RMK AO2 VIS 1 1/2V2 SLP150
  • 210858Z AUTO 00000KT 5SM BR OVC003 24/24 A2998 RMK AO2 SLP150 T02430236 52007
  • 210813Z AUTO 14005KT 8SM BKN003 24/24 A2997 RMK AO2 BKN V SCT SLP147
  • 210758Z AUTO 09003KT 10SM FEW004 25/24 A2997 RMK AO2 SLP147 T02450236

TAF AMD TAF KPOE
Valid from the 21 at 10:00 until the 22 at 14:00 UTC


211025Z 2110/2214 VRB06KT 9999 SCT003 SCT170 QNH2996INS
BECMG 2115/2116 17009KT 6000 -SHRA VCTS SCT015CB SCT025 QNH2992INS
TEMPO 2117/2120 23010G15KT 6000 -TSRA BKN015CB
TEMPO 2121/2124 VRB20G25KT 4800 -TSRA BKN015CB
BECMG 2201/2202 VRB06KT 9999 NSW SCT015 BKN030 QNH2995INS
BECMG 2208/2209 VRB06KT 6000 BR SCT008 BKN015 QNH2997INS TX32/2119Z TN24/2112Z
KZHU FIR / North America



MET'MAP, your aeronautical weather chart ! - Copyright ORBIFLY December 2007 - Disclaimer

ORBIFLY MET'MAP TEAM :

Programming & Development : Alexandra Zaïnal
Concept & Development : Baudouin d'Aumeries
Co-Development & Prog : Marc-Olivier Méhu
Technical & hardware support : Manuel Goepfert

Contact : metmap@orbifly.com




SOURCES & CREDITS :

   NOAA       Earth
Advisory